Terminal Aerodrome Forecast
Issued by NWS Cleveland, OH

Home | Current Version | Previous Version | Graphics & Text | Print | Product List | Glossary On
Versions: 1 2 3 4 5 6 7 8 9 10 11 12 13 14 15 16 17
000
FTUS41 KCLE 151741
TAFCAK
TAF
KCAK 151741Z 1518/1618 20005KT P6SM OVC040
     FM152100 24014KT P6SM VCSH OVC025
      TEMPO 1521/1523 4SM -SHSN OVC015
     FM160200 25012KT P6SM OVC035
     FM160900 24012KT 4SM -SN OVC020
     FM161300 25012KT P6SM OVC035=

USA.gov is the U.S. government's official web portal to all federal, state and local government web resources and services.